sensor_id;sensor_type;location;lat;lon;timestamp;P1;durP1;ratioP1;P2;durP2;ratioP2
11303;SDS011;5707;49.588;12.148;2023-07-08T00:00:45;2.90;;;2.70;;
11303;SDS011;5707;49.588;12.148;2023-07-08T00:03:14;4.68;;;2.75;;
11303;SDS011;5707;49.588;12.148;2023-07-08T00:05:40;3.40;;;3.08;;
11303;SDS011;5707;49.588;12.148;2023-07-08T00:08:15;2.80;;;2.60;;
11303;SDS011;5707;49.588;12.148;2023-07-08T00:10:42;2.65;;;2.45;;
11303;SDS011;5707;49.588;12.148;2023-07-08T00:13:08;3.28;;;2.60;;
11303;SDS011;5707;49.588;12.148;2023-07-08T00:15:34;2.20;;;2.10;;
11303;SDS011;5707;49.588;12.148;2023-07-08T00:18:01;3.50;;;2.78;;
11303;SDS011;5707;49.588;12.148;2023-07-08T00:20:37;2.95;;;2.75;;
11303;SDS011;5707;49.588;12.148;2023-07-08T00:23:03;3.17;;;2.97;;
11303;SDS011;5707;49.588;12.148;2023-07-08T00:25:30;3.05;;;2.70;;
11303;SDS011;5707;49.588;12.148;2023-07-08T00:27:56;3.55;;;3.25;;
11303;SDS011;5707;49.588;12.148;2023-07-08T00:30:23;3.30;;;3.08;;
11303;SDS011;5707;49.588;12.148;2023-07-08T00:32:53;2.92;;;2.72;;
11303;SDS011;5707;49.588;12.148;2023-07-08T00:35:32;2.95;;;2.75;;
11303;SDS011;5707;49.588;12.148;2023-07-08T00:38:00;3.63;;;3.33;;
11303;SDS011;5707;49.588;12.148;2023-07-08T00:40:37;3.17;;;2.70;;
11303;SDS011;5707;49.588;12.148;2023-07-08T00:43:03;3.20;;;2.90;;
11303;SDS011;5707;49.588;12.148;2023-07-08T00:45:49;3.30;;;3.00;;
11303;SDS011;5707;49.588;12.148;2023-07-08T00:48:25;4.07;;;2.95;;
11303;SDS011;5707;49.588;12.148;2023-07-08T00:50:54;3.95;;;3.65;;
11303;SDS011;5707;49.588;12.148;2023-07-08T00:53:28;2.88;;;2.67;;
11303;SDS011;5707;49.588;12.148;2023-07-08T00:55:55;3.67;;;2.95;;
11303;SDS011;5707;49.588;12.148;2023-07-08T00:58:25;3.10;;;2.90;;
11303;SDS011;5707;49.588;12.148;2023-07-08T01:00:59;3.03;;;2.83;;
11303;SDS011;5707;49.588;12.148;2023-07-08T01:03:28;3.00;;;2.80;;
11303;SDS011;5707;49.588;12.148;2023-07-08T01:05:55;2.92;;;2.72;;
11303;SDS011;5707;49.588;12.148;2023-07-08T01:08:24;2.92;;;2.72;;
11303;SDS011;5707;49.588;12.148;2023-07-08T01:10:57;3.75;;;2.92;;
11303;SDS011;5707;49.588;12.148;2023-07-08T01:13:27;2.80;;;2.60;;
11303;SDS011;5707;49.588;12.148;2023-07-08T01:16:05;2.75;;;2.55;;
11303;SDS011;5707;49.588;12.148;2023-07-08T01:18:31;3.13;;;2.85;;
11303;SDS011;5707;49.588;12.148;2023-07-08T01:21:03;2.72;;;2.53;;
11303;SDS011;5707;49.588;12.148;2023-07-08T01:23:31;2.63;;;2.42;;
11303;SDS011;5707;49.588;12.148;2023-07-08T01:25:59;3.13;;;2.70;;
11303;SDS011;5707;49.588;12.148;2023-07-08T01:28:25;2.63;;;2.47;;
11303;SDS011;5707;49.588;12.148;2023-07-08T01:30:52;3.20;;;2.90;;
11303;SDS011;5707;49.588;12.148;2023-07-08T01:33:19;2.95;;;2.67;;
11303;SDS011;5707;49.588;12.148;2023-07-08T01:35:49;2.67;;;2.47;;
11303;SDS011;5707;49.588;12.148;2023-07-08T01:38:15;2.50;;;2.30;;
11303;SDS011;5707;49.588;12.148;2023-07-08T01:40:52;2.72;;;2.53;;
11303;SDS011;5707;49.588;12.148;2023-07-08T01:43:19;3.03;;;2.70;;
11303;SDS011;5707;49.588;12.148;2023-07-08T01:45:45;4.50;;;2.67;;
11303;SDS011;5707;49.588;12.148;2023-07-08T01:48:13;3.38;;;2.78;;
11303;SDS011;5707;49.588;12.148;2023-07-08T01:50:42;2.97;;;2.78;;
11303;SDS011;5707;49.588;12.148;2023-07-08T01:53:30;2.53;;;2.40;;
11303;SDS011;5707;49.588;12.148;2023-07-08T01:55:57;3.00;;;2.80;;
11303;SDS011;5707;49.588;12.148;2023-07-08T01:58:23;3.40;;;2.55;;
11303;SDS011;5707;49.588;12.148;2023-07-08T02:00:49;3.13;;;2.88;;
11303;SDS011;5707;49.588;12.148;2023-07-08T02:03:15;2.85;;;2.65;;
11303;SDS011;5707;49.588;12.148;2023-07-08T02:05:41;2.85;;;2.65;;
11303;SDS011;5707;49.588;12.148;2023-07-08T02:08:07;2.47;;;2.38;;
11303;SDS011;5707;49.588;12.148;2023-07-08T02:10:32;2.70;;;2.50;;
11303;SDS011;5707;49.588;12.148;2023-07-08T02:12:58;3.30;;;2.92;;
11303;SDS011;5707;49.588;12.148;2023-07-08T02:15:25;2.70;;;2.50;;
11303;SDS011;5707;49.588;12.148;2023-07-08T02:17:51;3.70;;;3.28;;
11303;SDS011;5707;49.588;12.148;2023-07-08T02:20:16;2.67;;;2.47;;
11303;SDS011;5707;49.588;12.148;2023-07-08T02:22:42;3.13;;;2.92;;
11303;SDS011;5707;49.588;12.148;2023-07-08T02:25:08;3.80;;;2.92;;
11303;SDS011;5707;49.588;12.148;2023-07-08T02:27:37;3.47;;;3.17;;
11303;SDS011;5707;49.588;12.148;2023-07-08T02:30:03;3.30;;;3.10;;
11303;SDS011;5707;49.588;12.148;2023-07-08T02:32:29;3.72;;;3.47;;
11303;SDS011;5707;49.588;12.148;2023-07-08T02:34:55;3.47;;;3.28;;
11303;SDS011;5707;49.588;12.148;2023-07-08T02:37:20;3.60;;;3.40;;
11303;SDS011;5707;49.588;12.148;2023-07-08T02:39:46;3.45;;;3.25;;
11303;SDS011;5707;49.588;12.148;2023-07-08T02:42:11;3.05;;;2.85;;
11303;SDS011;5707;49.588;12.148;2023-07-08T02:44:37;3.83;;;3.53;;
11303;SDS011;5707;49.588;12.148;2023-07-08T02:47:02;3.63;;;3.42;;
11303;SDS011;5707;49.588;12.148;2023-07-08T02:49:29;3.40;;;3.20;;
11303;SDS011;5707;49.588;12.148;2023-07-08T02:51:55;3.88;;;3.58;;
11303;SDS011;5707;49.588;12.148;2023-07-08T02:54:20;3.83;;;3.53;;
11303;SDS011;5707;49.588;12.148;2023-07-08T02:56:46;3.72;;;3.53;;
11303;SDS011;5707;49.588;12.148;2023-07-08T02:59:12;4.43;;;4.13;;
11303;SDS011;5707;49.588;12.148;2023-07-08T03:01:37;4.60;;;4.20;;
11303;SDS011;5707;49.588;12.148;2023-07-08T03:04:06;3.85;;;3.65;;
11303;SDS011;5707;49.588;12.148;2023-07-08T03:06:33;4.18;;;3.88;;
11303;SDS011;5707;49.588;12.148;2023-07-08T03:08:59;3.83;;;3.63;;
11303;SDS011;5707;49.588;12.148;2023-07-08T03:11:25;3.83;;;3.40;;
11303;SDS011;5707;49.588;12.148;2023-07-08T03:13:51;3.25;;;2.90;;
11303;SDS011;5707;49.588;12.148;2023-07-08T03:16:16;3.60;;;3.30;;
11303;SDS011;5707;49.588;12.148;2023-07-08T03:18:42;3.38;;;3.10;;
11303;SDS011;5707;49.588;12.148;2023-07-08T03:21:14;5.13;;;3.45;;
11303;SDS011;5707;49.588;12.148;2023-07-08T03:23:41;3.58;;;3.33;;
11303;SDS011;5707;49.588;12.148;2023-07-08T03:26:07;4.38;;;2.80;;
11303;SDS011;5707;49.588;12.148;2023-07-08T03:28:37;3.60;;;3.30;;
11303;SDS011;5707;49.588;12.148;2023-07-08T03:31:03;3.50;;;3.30;;
11303;SDS011;5707;49.588;12.148;2023-07-08T03:33:29;3.60;;;2.97;;
11303;SDS011;5707;49.588;12.148;2023-07-08T03:35:54;3.08;;;2.88;;
11303;SDS011;5707;49.588;12.148;2023-07-08T03:38:20;5.32;;;3.30;;
11303;SDS011;5707;49.588;12.148;2023-07-08T03:40:46;3.67;;;3.33;;
11303;SDS011;5707;49.588;12.148;2023-07-08T03:43:12;4.18;;;3.25;;
11303;SDS011;5707;49.588;12.148;2023-07-08T03:45:37;3.90;;;3.28;;
11303;SDS011;5707;49.588;12.148;2023-07-08T03:48:03;3.60;;;3.40;;
11303;SDS011;5707;49.588;12.148;2023-07-08T03:50:28;3.88;;;3.58;;
11303;SDS011;5707;49.588;12.148;2023-07-08T03:52:54;4.05;;;3.00;;
11303;SDS011;5707;49.588;12.148;2023-07-08T03:55:20;4.13;;;3.20;;
11303;SDS011;5707;49.588;12.148;2023-07-08T03:57:46;3.60;;;3.30;;
11303;SDS011;5707;49.588;12.148;2023-07-08T04:00:12;3.72;;;3.42;;
11303;SDS011;5707;49.588;12.148;2023-07-08T04:02:39;4.05;;;3.75;;
11303;SDS011;5707;49.588;12.148;2023-07-08T04:05:06;3.95;;;3.58;;
11303;SDS011;5707;49.588;12.148;2023-07-08T04:07:33;3.17;;;2.97;;
11303;SDS011;5707;49.588;12.148;2023-07-08T04:09:58;4.30;;;3.33;;
11303;SDS011;5707;49.588;12.148;2023-07-08T04:12:24;4.22;;;3.92;;
11303;SDS011;5707;49.588;12.148;2023-07-08T04:14:49;5.18;;;3.80;;
11303;SDS011;5707;49.588;12.148;2023-07-08T04:17:15;4.03;;;3.17;;
11303;SDS011;5707;49.588;12.148;2023-07-08T04:19:43;4.32;;;3.40;;
11303;SDS011;5707;49.588;12.148;2023-07-08T04:22:09;3.67;;;3.47;;
11303;SDS011;5707;49.588;12.148;2023-07-08T04:24:35;4.75;;;3.70;;
11303;SDS011;5707;49.588;12.148;2023-07-08T04:27:01;3.90;;;3.60;;
11303;SDS011;5707;49.588;12.148;2023-07-08T04:29:27;3.65;;;3.05;;
11303;SDS011;5707;49.588;12.148;2023-07-08T04:31:52;6.20;;;3.42;;
11303;SDS011;5707;49.588;12.148;2023-07-08T04:34:18;4.07;;;3.70;;
11303;SDS011;5707;49.588;12.148;2023-07-08T04:36:45;3.65;;;3.35;;
11303;SDS011;5707;49.588;12.148;2023-07-08T04:39:11;4.85;;;3.63;;
11303;SDS011;5707;49.588;12.148;2023-07-08T04:41:37;3.50;;;3.20;;
11303;SDS011;5707;49.588;12.148;2023-07-08T04:44:06;4.38;;;4.07;;
11303;SDS011;5707;49.588;12.148;2023-07-08T04:46:35;4.25;;;3.63;;
11303;SDS011;5707;49.588;12.148;2023-07-08T04:49:02;3.97;;;3.67;;
11303;SDS011;5707;49.588;12.148;2023-07-08T04:51:29;5.13;;;3.63;;
11303;SDS011;5707;49.588;12.148;2023-07-08T04:53:54;4.43;;;3.63;;
11303;SDS011;5707;49.588;12.148;2023-07-08T04:56:20;3.95;;;3.65;;
11303;SDS011;5707;49.588;12.148;2023-07-08T04:58:46;4.03;;;3.72;;
11303;SDS011;5707;49.588;12.148;2023-07-08T05:01:12;4.30;;;3.90;;
11303;SDS011;5707;49.588;12.148;2023-07-08T05:03:37;4.05;;;3.75;;
11303;SDS011;5707;49.588;12.148;2023-07-08T05:06:03;5.13;;;3.75;;
11303;SDS011;5707;49.588;12.148;2023-07-08T05:08:28;4.60;;;4.15;;
11303;SDS011;5707;49.588;12.148;2023-07-08T05:10:55;4.82;;;3.50;;
11303;SDS011;5707;49.588;12.148;2023-07-08T05:13:20;5.20;;;3.70;;
11303;SDS011;5707;49.588;12.148;2023-07-08T05:15:47;4.15;;;3.85;;
11303;SDS011;5707;49.588;12.148;2023-07-08T05:18:13;4.55;;;4.15;;
11303;SDS011;5707;49.588;12.148;2023-07-08T05:20:39;6.03;;;4.10;;
11303;SDS011;5707;49.588;12.148;2023-07-08T05:23:05;4.15;;;3.85;;
11303;SDS011;5707;49.588;12.148;2023-07-08T05:25:31;3.42;;;3.20;;
11303;SDS011;5707;49.588;12.148;2023-07-08T05:27:58;4.57;;;4.18;;
11303;SDS011;5707;49.588;12.148;2023-07-08T05:30:23;4.43;;;4.13;;
11303;SDS011;5707;49.588;12.148;2023-07-08T05:32:49;4.38;;;3.85;;
11303;SDS011;5707;49.588;12.148;2023-07-08T05:35:14;4.10;;;3.80;;
11303;SDS011;5707;49.588;12.148;2023-07-08T05:37:40;4.32;;;4.03;;
11303;SDS011;5707;49.588;12.148;2023-07-08T05:40:07;4.57;;;4.05;;
11303;SDS011;5707;49.588;12.148;2023-07-08T05:42:33;3.70;;;3.40;;
11303;SDS011;5707;49.588;12.148;2023-07-08T05:44:59;4.00;;;3.70;;
11303;SDS011;5707;49.588;12.148;2023-07-08T05:47:24;3.97;;;3.67;;
11303;SDS011;5707;49.588;12.148;2023-07-08T05:49:50;4.63;;;3.28;;
11303;SDS011;5707;49.588;12.148;2023-07-08T05:52:16;3.67;;;3.40;;
11303;SDS011;5707;49.588;12.148;2023-07-08T05:54:42;4.28;;;3.60;;
11303;SDS011;5707;49.588;12.148;2023-07-08T05:57:08;3.38;;;3.00;;
11303;SDS011;5707;49.588;12.148;2023-07-08T05:59:35;4.53;;;3.97;;
11303;SDS011;5707;49.588;12.148;2023-07-08T06:02:02;4.70;;;3.33;;
11303;SDS011;5707;49.588;12.148;2023-07-08T06:04:28;4.30;;;4.00;;
11303;SDS011;5707;49.588;12.148;2023-07-08T06:06:55;3.65;;;3.45;;
11303;SDS011;5707;49.588;12.148;2023-07-08T06:09:21;4.40;;;4.10;;
11303;SDS011;5707;49.588;12.148;2023-07-08T06:11:46;4.10;;;3.80;;
11303;SDS011;5707;49.588;12.148;2023-07-08T06:14:12;4.43;;;4.13;;
11303;SDS011;5707;49.588;12.148;2023-07-08T06:16:37;4.22;;;3.80;;
11303;SDS011;5707;49.588;12.148;2023-07-08T06:19:03;5.82;;;4.07;;
11303;SDS011;5707;49.588;12.148;2023-07-08T06:21:29;4.60;;;3.83;;
11303;SDS011;5707;49.588;12.148;2023-07-08T06:23:54;6.57;;;3.95;;
11303;SDS011;5707;49.588;12.148;2023-07-08T06:26:20;4.05;;;3.53;;
11303;SDS011;5707;49.588;12.148;2023-07-08T06:28:45;3.55;;;3.33;;
11303;SDS011;5707;49.588;12.148;2023-07-08T06:31:11;5.65;;;3.30;;
11303;SDS011;5707;49.588;12.148;2023-07-08T06:33:36;4.10;;;3.80;;
11303;SDS011;5707;49.588;12.148;2023-07-08T06:36:02;4.15;;;3.70;;
11303;SDS011;5707;49.588;12.148;2023-07-08T06:38:27;4.22;;;3.78;;
11303;SDS011;5707;49.588;12.148;2023-07-08T06:40:53;4.55;;;4.15;;
11303;SDS011;5707;49.588;12.148;2023-07-08T06:43:19;4.07;;;3.78;;
11303;SDS011;5707;49.588;12.148;2023-07-08T06:45:44;4.03;;;3.63;;
11303;SDS011;5707;49.588;12.148;2023-07-08T06:48:10;4.60;;;3.15;;
11303;SDS011;5707;49.588;12.148;2023-07-08T06:50:35;4.10;;;3.22;;
11303;SDS011;5707;49.588;12.148;2023-07-08T06:53:02;4.05;;;3.75;;
11303;SDS011;5707;49.588;12.148;2023-07-08T06:55:27;3.85;;;3.53;;
11303;SDS011;5707;49.588;12.148;2023-07-08T06:57:55;3.25;;;3.05;;
11303;SDS011;5707;49.588;12.148;2023-07-08T07:00:20;3.70;;;3.45;;
11303;SDS011;5707;49.588;12.148;2023-07-08T07:02:46;4.35;;;3.47;;
11303;SDS011;5707;49.588;12.148;2023-07-08T07:05:12;3.65;;;3.35;;
11303;SDS011;5707;49.588;12.148;2023-07-08T07:07:37;4.45;;;3.28;;
11303;SDS011;5707;49.588;12.148;2023-07-08T07:10:03;3.50;;;3.20;;
11303;SDS011;5707;49.588;12.148;2023-07-08T07:12:29;3.40;;;3.10;;
11303;SDS011;5707;49.588;12.148;2023-07-08T07:14:54;3.42;;;3.13;;
11303;SDS011;5707;49.588;12.148;2023-07-08T07:17:20;3.45;;;3.15;;
11303;SDS011;5707;49.588;12.148;2023-07-08T07:19:47;3.13;;;2.83;;
11303;SDS011;5707;49.588;12.148;2023-07-08T07:22:13;3.08;;;2.88;;
11303;SDS011;5707;49.588;12.148;2023-07-08T07:24:38;3.65;;;3.33;;
11303;SDS011;5707;49.588;12.148;2023-07-08T07:27:04;3.28;;;3.08;;
11303;SDS011;5707;49.588;12.148;2023-07-08T07:29:38;3.45;;;3.15;;
11303;SDS011;5707;49.588;12.148;2023-07-08T07:32:09;3.50;;;3.20;;
11303;SDS011;5707;49.588;12.148;2023-07-08T07:34:35;3.00;;;2.80;;
11303;SDS011;5707;49.588;12.148;2023-07-08T07:37:01;24.40;;;4.50;;
11303;SDS011;5707;49.588;12.148;2023-07-08T07:39:26;65.03;;;8.77;;
11303;SDS011;5707;49.588;12.148;2023-07-08T07:41:53;3.72;;;3.42;;
11303;SDS011;5707;49.588;12.148;2023-07-08T07:44:19;3.10;;;2.80;;
11303;SDS011;5707;49.588;12.148;2023-07-08T07:46:44;1.63;;;1.52;;
11303;SDS011;5707;49.588;12.148;2023-07-08T07:49:11;2.72;;;2.42;;
11303;SDS011;5707;49.588;12.148;2023-07-08T07:51:37;147.18;;;38.80;;
11303;SDS011;5707;49.588;12.148;2023-07-08T07:54:03;4.25;;;2.97;;
11303;SDS011;5707;49.588;12.148;2023-07-08T07:56:28;2.08;;;1.92;;
11303;SDS011;5707;49.588;12.148;2023-07-08T07:58:54;9.85;;;6.15;;
11303;SDS011;5707;49.588;12.148;2023-07-08T08:01:19;46.88;;;44.75;;
11303;SDS011;5707;49.588;12.148;2023-07-08T08:03:46;61.30;;;56.10;;
11303;SDS011;5707;49.588;12.148;2023-07-08T08:06:15;3.72;;;2.65;;
11303;SDS011;5707;49.588;12.148;2023-07-08T08:08:42;2.53;;;1.63;;
11303;SDS011;5707;49.588;12.148;2023-07-08T08:11:08;1.20;;;0.80;;
11303;SDS011;5707;49.588;12.148;2023-07-08T08:13:34;1.40;;;1.27;;
11303;SDS011;5707;49.588;12.148;2023-07-08T08:15:59;2.10;;;1.45;;
11303;SDS011;5707;49.588;12.148;2023-07-08T08:18:25;1.70;;;1.60;;
11303;SDS011;5707;49.588;12.148;2023-07-08T08:20:51;2.13;;;1.20;;
11303;SDS011;5707;49.588;12.148;2023-07-08T08:23:17;2.55;;;1.25;;
11303;SDS011;5707;49.588;12.148;2023-07-08T08:25:42;1.73;;;1.60;;
11303;SDS011;5707;49.588;12.148;2023-07-08T08:28:08;1.20;;;0.82;;
11303;SDS011;5707;49.588;12.148;2023-07-08T08:30:34;1.40;;;1.20;;
11303;SDS011;5707;49.588;12.148;2023-07-08T08:33:00;1.35;;;1.25;;
11303;SDS011;5707;49.588;12.148;2023-07-08T08:35:26;1.42;;;1.35;;
11303;SDS011;5707;49.588;12.148;2023-07-08T08:37:52;1.30;;;0.93;;
11303;SDS011;5707;49.588;12.148;2023-07-08T08:40:19;2.03;;;1.25;;
11303;SDS011;5707;49.588;12.148;2023-07-08T08:43:02;0.68;;;0.68;;
11303;SDS011;5707;49.588;12.148;2023-07-08T08:45:32;1.63;;;1.08;;
11303;SDS011;5707;49.588;12.148;2023-07-08T08:48:04;2.53;;;1.02;;
11303;SDS011;5707;49.588;12.148;2023-07-08T08:50:44;1999.90;;;999.90;;
11303;SDS011;5707;49.588;12.148;2023-07-08T08:53:16;1999.90;;;999.90;;
11303;SDS011;5707;49.588;12.148;2023-07-08T08:55:42;1999.90;;;999.90;;
11303;SDS011;5707;49.588;12.148;2023-07-08T08:58:23;1999.90;;;999.90;;
11303;SDS011;5707;49.588;12.148;2023-07-08T09:00:56;1999.90;;;999.90;;
11303;SDS011;5707;49.588;12.148;2023-07-08T09:03:33;1999.90;;;999.90;;
11303;SDS011;5707;49.588;12.148;2023-07-08T09:06:11;1999.90;;;999.90;;
11303;SDS011;5707;49.588;12.148;2023-07-08T09:08:50;1999.90;;;999.90;;
11303;SDS011;5707;49.588;12.148;2023-07-08T09:13:55;1999.90;;;999.90;;
11303;SDS011;5707;49.588;12.148;2023-07-08T09:16:32;1999.90;;;999.90;;
11303;SDS011;5707;49.588;12.148;2023-07-08T09:19:14;3.83;;;3.63;;
11303;SDS011;5707;49.588;12.148;2023-07-08T09:21:56;38.45;;;36.70;;
11303;SDS011;5707;49.588;12.148;2023-07-08T09:24:29;5.55;;;5.22;;
11303;SDS011;5707;49.588;12.148;2023-07-08T09:26:56;6.35;;;6.15;;
11303;SDS011;5707;49.588;12.148;2023-07-08T09:29:24;54.20;;;52.10;;
11303;SDS011;5707;49.588;12.148;2023-07-08T09:31:50;1999.90;;;999.90;;
11303;SDS011;5707;49.588;12.148;2023-07-08T09:34:16;1999.90;;;999.90;;
11303;SDS011;5707;49.588;12.148;2023-07-08T09:36:48;1999.90;;;999.90;;
11303;SDS011;5707;49.588;12.148;2023-07-08T09:39:18;1999.90;;;999.90;;
11303;SDS011;5707;49.588;12.148;2023-07-08T09:41:46;1999.90;;;999.90;;
11303;SDS011;5707;49.588;12.148;2023-07-08T09:44:24;1999.90;;;999.90;;
11303;SDS011;5707;49.588;12.148;2023-07-08T09:46:54;1999.90;;;999.90;;
11303;SDS011;5707;49.588;12.148;2023-07-08T09:49:31;1999.90;;;999.90;;
11303;SDS011;5707;49.588;12.148;2023-07-08T09:52:00;1999.90;;;999.90;;
11303;SDS011;5707;49.588;12.148;2023-07-08T09:54:26;1999.90;;;999.90;;
11303;SDS011;5707;49.588;12.148;2023-07-08T09:57:00;33.25;;;30.90;;
11303;SDS011;5707;49.588;12.148;2023-07-08T09:59:38;166.68;;;103.57;;
11303;SDS011;5707;49.588;12.148;2023-07-08T10:02:27;3.50;;;2.00;;
11303;SDS011;5707;49.588;12.148;2023-07-08T10:05:10;2.17;;;1.98;;
11303;SDS011;5707;49.588;12.148;2023-07-08T10:07:41;2.45;;;2.15;;
11303;SDS011;5707;49.588;12.148;2023-07-08T10:10:10;2.63;;;2.20;;
11303;SDS011;5707;49.588;12.148;2023-07-08T10:12:40;2.28;;;2.08;;
11303;SDS011;5707;49.588;12.148;2023-07-08T10:15:16;2.80;;;1.95;;
11303;SDS011;5707;49.588;12.148;2023-07-08T10:17:46;3.10;;;1.60;;
11303;SDS011;5707;49.588;12.148;2023-07-08T10:20:12;2.50;;;1.92;;
11303;SDS011;5707;49.588;12.148;2023-07-08T10:25:34;2.45;;;2.17;;
11303;SDS011;5707;49.588;12.148;2023-07-08T10:30:57;4.00;;;1.80;;
11303;SDS011;5707;49.588;12.148;2023-07-08T10:39:43;1.77;;;1.67;;
11303;SDS011;5707;49.588;12.148;2023-07-08T10:45:07;1.80;;;1.70;;
11303;SDS011;5707;49.588;12.148;2023-07-08T10:55:38;3.80;;;2.20;;
11303;SDS011;5707;49.588;12.148;2023-07-08T10:58:37;2.55;;;2.30;;
11303;SDS011;5707;49.588;12.148;2023-07-08T11:01:07;2.00;;;1.90;;
11303;SDS011;5707;49.588;12.148;2023-07-08T11:03:57;2.08;;;1.98;;
11303;SDS011;5707;49.588;12.148;2023-07-08T11:06:29;1.85;;;1.75;;
11303;SDS011;5707;49.588;12.148;2023-07-08T11:08:58;1.90;;;1.70;;
11303;SDS011;5707;49.588;12.148;2023-07-08T11:11:36;2.20;;;2.00;;
11303;SDS011;5707;49.588;12.148;2023-07-08T11:14:13;2.20;;;2.00;;
11303;SDS011;5707;49.588;12.148;2023-07-08T11:17:03;1.88;;;1.77;;
11303;SDS011;5707;49.588;12.148;2023-07-08T11:19:42;3.30;;;2.13;;
11303;SDS011;5707;49.588;12.148;2023-07-08T11:22:21;2.42;;;2.22;;
11303;SDS011;5707;49.588;12.148;2023-07-08T11:24:48;2.00;;;1.90;;
11303;SDS011;5707;49.588;12.148;2023-07-08T11:27:22;2.60;;;2.40;;
11303;SDS011;5707;49.588;12.148;2023-07-08T11:30:11;2.35;;;2.05;;
11303;SDS011;5707;49.588;12.148;2023-07-08T11:32:39;2.53;;;2.00;;
11303;SDS011;5707;49.588;12.148;2023-07-08T11:35:13;2.97;;;2.22;;
11303;SDS011;5707;49.588;12.148;2023-07-08T11:37:44;2.03;;;1.92;;
11303;SDS011;5707;49.588;12.148;2023-07-08T11:40:19;2.00;;;1.90;;
11303;SDS011;5707;49.588;12.148;2023-07-08T11:42:54;2.17;;;2.08;;
11303;SDS011;5707;49.588;12.148;2023-07-08T11:45:35;2.47;;;2.28;;
11303;SDS011;5707;49.588;12.148;2023-07-08T11:48:18;2.10;;;1.83;;
11303;SDS011;5707;49.588;12.148;2023-07-08T11:50:49;2.17;;;1.98;;
11303;SDS011;5707;49.588;12.148;2023-07-08T11:58:29;3.08;;;2.65;;
11303;SDS011;5707;49.588;12.148;2023-07-08T12:01:00;34.67;;;3.83;;
11303;SDS011;5707;49.588;12.148;2023-07-08T12:03:49;2.35;;;2.20;;
11303;SDS011;5707;49.588;12.148;2023-07-08T12:08:57;2.10;;;1.95;;
11303;SDS011;5707;49.588;12.148;2023-07-08T12:11:26;2.00;;;1.90;;
11303;SDS011;5707;49.588;12.148;2023-07-08T12:13:56;1.95;;;1.85;;
11303;SDS011;5707;49.588;12.148;2023-07-08T12:16:27;5.53;;;2.00;;
11303;SDS011;5707;49.588;12.148;2023-07-08T12:18:55;2.25;;;2.05;;
11303;SDS011;5707;49.588;12.148;2023-07-08T12:21:23;2.10;;;2.00;;
11303;SDS011;5707;49.588;12.148;2023-07-08T12:23:51;2.40;;;2.20;;
11303;SDS011;5707;49.588;12.148;2023-07-08T12:26:17;1.92;;;1.83;;
11303;SDS011;5707;49.588;12.148;2023-07-08T12:28:43;2.10;;;1.90;;
11303;SDS011;5707;49.588;12.148;2023-07-08T12:31:19;2.30;;;2.10;;
11303;SDS011;5707;49.588;12.148;2023-07-08T12:33:46;2.17;;;2.08;;
11303;SDS011;5707;49.588;12.148;2023-07-08T12:36:18;1.95;;;1.85;;
11303;SDS011;5707;49.588;12.148;2023-07-08T12:38:47;2.50;;;1.80;;
11303;SDS011;5707;49.588;12.148;2023-07-08T12:41:19;2.40;;;2.20;;
11303;SDS011;5707;49.588;12.148;2023-07-08T12:43:47;1.90;;;1.80;;
11303;SDS011;5707;49.588;12.148;2023-07-08T12:46:14;1.92;;;1.83;;
11303;SDS011;5707;49.588;12.148;2023-07-08T12:48:42;2.55;;;2.35;;
11303;SDS011;5707;49.588;12.148;2023-07-08T12:51:12;2.40;;;2.17;;
11303;SDS011;5707;49.588;12.148;2023-07-08T12:53:40;3.70;;;1.95;;
11303;SDS011;5707;49.588;12.148;2023-07-08T12:56:07;2.20;;;2.00;;
11303;SDS011;5707;49.588;12.148;2023-07-08T12:58:42;2.58;;;2.38;;
11303;SDS011;5707;49.588;12.148;2023-07-08T13:01:13;2.20;;;2.00;;
11303;SDS011;5707;49.588;12.148;2023-07-08T13:03:54;2.30;;;2.05;;
11303;SDS011;5707;49.588;12.148;2023-07-08T13:06:25;2.28;;;2.10;;
11303;SDS011;5707;49.588;12.148;2023-07-08T13:08:54;2.00;;;1.80;;
11303;SDS011;5707;49.588;12.148;2023-07-08T13:11:33;2.10;;;2.00;;
11303;SDS011;5707;49.588;12.148;2023-07-08T13:14:00;3.15;;;2.22;;
11303;SDS011;5707;49.588;12.148;2023-07-08T13:16:31;2.13;;;1.95;;
11303;SDS011;5707;49.588;12.148;2023-07-08T13:18:59;2.20;;;2.10;;
11303;SDS011;5707;49.588;12.148;2023-07-08T13:21:25;2.30;;;2.10;;
11303;SDS011;5707;49.588;12.148;2023-07-08T13:23:52;3.05;;;2.33;;
11303;SDS011;5707;49.588;12.148;2023-07-08T13:26:20;2.35;;;2.20;;
11303;SDS011;5707;49.588;12.148;2023-07-08T13:28:48;2.28;;;1.90;;
11303;SDS011;5707;49.588;12.148;2023-07-08T13:31:16;2.35;;;1.90;;
11303;SDS011;5707;49.588;12.148;2023-07-08T13:33:47;1.92;;;1.77;;
11303;SDS011;5707;49.588;12.148;2023-07-08T13:36:16;1.80;;;1.70;;
11303;SDS011;5707;49.588;12.148;2023-07-08T13:38:43;1.73;;;1.63;;
11303;SDS011;5707;49.588;12.148;2023-07-08T13:41:09;2.00;;;1.90;;
11303;SDS011;5707;49.588;12.148;2023-07-08T13:43:38;1.92;;;1.80;;
11303;SDS011;5707;49.588;12.148;2023-07-08T13:46:06;2.35;;;2.17;;
11303;SDS011;5707;49.588;12.148;2023-07-08T13:48:50;2.05;;;1.95;;
11303;SDS011;5707;49.588;12.148;2023-07-08T13:51:18;2.85;;;1.90;;
11303;SDS011;5707;49.588;12.148;2023-07-08T13:53:46;2.15;;;2.00;;
11303;SDS011;5707;49.588;12.148;2023-07-08T13:56:35;2.50;;;2.30;;
11303;SDS011;5707;49.588;12.148;2023-07-08T13:59:10;3.47;;;2.15;;
11303;SDS011;5707;49.588;12.148;2023-07-08T14:01:41;3.80;;;2.00;;
11303;SDS011;5707;49.588;12.148;2023-07-08T14:04:09;4.03;;;1.90;;
11303;SDS011;5707;49.588;12.148;2023-07-08T14:06:38;1.73;;;1.63;;
11303;SDS011;5707;49.588;12.148;2023-07-08T14:09:12;2.65;;;1.73;;
11303;SDS011;5707;49.588;12.148;2023-07-08T14:11:40;1.80;;;1.70;;
11303;SDS011;5707;49.588;12.148;2023-07-08T14:14:07;2.75;;;1.80;;
11303;SDS011;5707;49.588;12.148;2023-07-08T14:16:34;2.40;;;2.20;;
11303;SDS011;5707;49.588;12.148;2023-07-08T14:19:02;1.77;;;1.67;;
11303;SDS011;5707;49.588;12.148;2023-07-08T14:21:31;2.35;;;2.15;;
11303;SDS011;5707;49.588;12.148;2023-07-08T14:23:58;2.15;;;1.90;;
11303;SDS011;5707;49.588;12.148;2023-07-08T14:26:24;3.03;;;2.05;;
11303;SDS011;5707;49.588;12.148;2023-07-08T14:28:49;2.15;;;2.00;;
11303;SDS011;5707;49.588;12.148;2023-07-08T14:31:15;2.03;;;1.88;;
11303;SDS011;5707;49.588;12.148;2023-07-08T14:33:45;3.65;;;2.08;;
11303;SDS011;5707;49.588;12.148;2023-07-08T14:36:10;2.80;;;2.00;;
11303;SDS011;5707;49.588;12.148;2023-07-08T14:38:36;1.70;;;1.60;;
11303;SDS011;5707;49.588;12.148;2023-07-08T14:41:02;1.90;;;1.80;;
11303;SDS011;5707;49.588;12.148;2023-07-08T14:43:29;2.10;;;2.00;;
11303;SDS011;5707;49.588;12.148;2023-07-08T14:45:56;2.42;;;2.13;;
11303;SDS011;5707;49.588;12.148;2023-07-08T14:48:24;2.10;;;1.90;;
11303;SDS011;5707;49.588;12.148;2023-07-08T14:50:52;3.17;;;1.90;;
11303;SDS011;5707;49.588;12.148;2023-07-08T14:53:17;2.08;;;1.88;;
11303;SDS011;5707;49.588;12.148;2023-07-08T14:55:44;2.40;;;2.20;;
11303;SDS011;5707;49.588;12.148;2023-07-08T14:58:17;2.05;;;1.90;;
11303;SDS011;5707;49.588;12.148;2023-07-08T15:00:47;1.88;;;1.77;;
11303;SDS011;5707;49.588;12.148;2023-07-08T15:03:15;3.67;;;2.40;;
11303;SDS011;5707;49.588;12.148;2023-07-08T15:05:40;2.17;;;1.95;;
11303;SDS011;5707;49.588;12.148;2023-07-08T15:08:07;2.35;;;2.13;;
11303;SDS011;5707;49.588;12.148;2023-07-08T15:10:32;2.13;;;2.03;;
11303;SDS011;5707;49.588;12.148;2023-07-08T15:12:59;2.15;;;1.95;;
11303;SDS011;5707;49.588;12.148;2023-07-08T15:15:29;2.72;;;2.10;;
11303;SDS011;5707;49.588;12.148;2023-07-08T15:17:58;2.78;;;2.10;;
11303;SDS011;5707;49.588;12.148;2023-07-08T15:20:25;2.42;;;1.98;;
11303;SDS011;5707;49.588;12.148;2023-07-08T15:22:51;1.77;;;1.67;;
11303;SDS011;5707;49.588;12.148;2023-07-08T15:25:17;2.70;;;1.58;;